createdAt,value
2022-08-10T00:01:51.390Z,17.38
2022-08-10T00:04:22.225Z,17.36
2022-08-10T00:06:52.909Z,17.35
2022-08-10T00:09:23.237Z,17.34
2022-08-10T00:11:51.826Z,17.32
2022-08-10T00:14:20.129Z,17.30
2022-08-10T00:16:48.768Z,17.28
2022-08-10T00:19:18.151Z,17.27
2022-08-10T00:21:46.649Z,17.27
2022-08-10T00:24:15.257Z,17.25
2022-08-10T00:27:57.800Z,17.24
2022-08-10T00:29:33.630Z,17.19
2022-08-10T00:32:01.943Z,17.21
2022-08-10T00:34:30.996Z,17.20
2022-08-10T00:37:00.476Z,17.18
2022-08-10T00:39:30.048Z,17.15
2022-08-10T00:42:08.243Z,17.14
2022-08-10T00:44:40.242Z,17.12
2022-08-10T00:47:21.389Z,17.12
2022-08-10T00:49:58.987Z,17.13
2022-08-10T00:52:32.180Z,17.12
2022-08-10T00:55:02.865Z,17.11
2022-08-10T00:57:33.815Z,17.08
2022-08-10T01:00:02.129Z,17.05
2022-08-10T01:02:32.818Z,17.04
2022-08-10T01:05:07.684Z,17.01
2022-08-10T01:07:51.281Z,16.97
2022-08-10T01:10:35.849Z,16.94
2022-08-10T01:13:13.190Z,16.94
2022-08-10T01:15:54.316Z,16.91
2022-08-10T01:18:37.765Z,16.87
2022-08-10T01:21:30.891Z,16.83
2022-08-10T01:24:23.209Z,16.79
2022-08-10T01:27:28.282Z,16.75
2022-08-10T01:30:08.271Z,16.73
2022-08-10T01:32:45.405Z,16.71
2022-08-10T01:35:18.887Z,16.70
2022-08-10T01:37:55.438Z,16.70
2022-08-10T01:40:26.534Z,16.71
2022-08-10T01:42:59.800Z,16.73
2022-08-10T01:45:46.126Z,16.72
2022-08-10T01:48:31.091Z,16.73
2022-08-10T01:51:10.840Z,16.71
2022-08-10T01:53:43.502Z,16.72
2022-08-10T01:56:16.450Z,16.77
2022-08-10T01:58:47.999Z,16.81
2022-08-10T02:01:21.330Z,16.85
2022-08-10T02:04:03.979Z,16.86
2022-08-10T02:06:38.381Z,16.87
2022-08-10T02:09:09.024Z,16.88
2022-08-10T02:12:05.672Z,16.90
2022-08-10T02:14:34.457Z,16.90
2022-08-10T02:17:58.582Z,16.90
2022-08-10T02:20:05.130Z,16.86
2022-08-10T02:22:38.886Z,16.90
2022-08-10T02:25:39.810Z,16.91
2022-08-10T02:27:59.854Z,16.91
2022-08-10T02:30:30.069Z,16.93
2022-08-10T02:33:00.462Z,16.94
2022-08-10T02:35:33.459Z,16.93
2022-08-10T02:38:23.165Z,16.93
2022-08-10T02:45:17.886Z,16.93
2022-08-10T02:45:25.519Z,16.94
2022-08-10T02:47:09.184Z,16.94
2022-08-10T02:49:43.096Z,16.94
2022-08-10T02:52:20.263Z,16.96
2022-08-10T02:54:53.655Z,16.96
2022-08-10T02:57:28.822Z,16.97
2022-08-10T03:00:03.407Z,16.99
2022-08-10T03:02:36.758Z,16.99
2022-08-10T03:05:12.144Z,16.98
2022-08-10T03:07:47.071Z,16.97
2022-08-10T03:10:19.058Z,16.96
2022-08-10T03:12:51.505Z,16.96
2022-08-10T03:15:22.166Z,16.93
2022-08-10T03:17:58.207Z,16.92
2022-08-10T03:20:38.662Z,16.92
2022-08-10T03:23:12.770Z,16.90
2022-08-10T03:25:53.017Z,16.89
2022-08-10T03:28:24.584Z,16.86
2022-08-10T03:30:54.008Z,16.88
2022-08-10T03:33:23.388Z,16.89
2022-08-10T03:36:40.004Z,16.90
2022-08-10T03:38:43.613Z,16.89
2022-08-10T03:41:16.197Z,16.89
2022-08-10T03:43:48.193Z,16.88
2022-08-10T03:46:20.263Z,16.85
2022-08-10T03:48:52.703Z,16.84
2022-08-10T03:51:23.927Z,16.87
2022-08-10T03:54:05.770Z,16.88
2022-08-10T03:56:37.557Z,16.88
2022-08-10T03:59:07.315Z,16.88
2022-08-10T04:02:46.488Z,16.88
2022-08-10T04:04:25.634Z,16.87
2022-08-10T04:06:58.178Z,16.87
2022-08-10T04:09:54.304Z,16.87
2022-08-10T04:12:20.026Z,16.87
2022-08-10T04:14:50.924Z,16.91
2022-08-10T04:18:04.946Z,16.93
2022-08-10T04:20:18.115Z,16.94
2022-08-10T04:22:52.620Z,16.96
2022-08-10T04:25:22.492Z,16.99
2022-08-10T04:27:51.832Z,17.01
2022-08-10T04:30:20.613Z,17.04
2022-08-10T04:32:53.984Z,17.04
2022-08-10T04:35:24.051Z,17.06
2022-08-10T04:37:57.442Z,17.05
2022-08-10T04:40:30.127Z,17.07
2022-08-10T04:43:11.685Z,17.06
2022-08-10T04:45:47.674Z,17.07
2022-08-10T04:48:40.393Z,17.07
2022-08-10T04:51:10.792Z,17.09
2022-08-10T04:54:05.771Z,17.13
2022-08-10T04:56:33.952Z,17.17
2022-08-10T04:59:02.167Z,17.21
2022-08-10T05:02:21.125Z,17.28
2022-08-10T05:04:36.985Z,17.34
2022-08-10T05:07:15.889Z,17.40
2022-08-10T05:10:02.511Z,17.48
2022-08-10T05:12:31.875Z,17.56
2022-08-10T05:15:00.079Z,17.65
2022-08-10T05:17:28.329Z,17.72
2022-08-10T05:20:04.954Z,17.79
2022-08-10T05:22:36.747Z,17.87
2022-08-10T05:25:10.170Z,17.95
2022-08-10T05:27:39.603Z,18.05
2022-08-10T05:30:09.823Z,18.13
2022-08-10T05:32:56.913Z,18.24
2022-08-10T05:35:27.665Z,18.33
2022-08-10T05:38:11.510Z,18.42
2022-08-10T05:40:47.283Z,18.53
2022-08-10T05:43:19.037Z,18.62
2022-08-10T05:46:18.286Z,18.70
2022-08-10T05:48:41.656Z,18.80
2022-08-10T05:51:27.849Z,18.90
2022-08-10T05:54:02.031Z,18.97
2022-08-10T05:56:56.982Z,19.07
2022-08-10T06:00:29.376Z,19.12
2022-08-10T06:02:30.722Z,19.21
2022-08-10T06:05:12.495Z,19.32
2022-08-10T06:07:46.214Z,19.40
2022-08-10T06:10:31.629Z,19.49
2022-08-10T06:13:30.907Z,19.55
2022-08-10T06:16:06.961Z,19.62
2022-08-10T06:18:35.221Z,19.68
2022-08-10T06:21:04.438Z,19.78
2022-08-10T06:23:34.199Z,19.87
2022-08-10T06:26:11.182Z,19.98
2022-08-10T06:28:53.110Z,20.11
2022-08-10T06:31:48.137Z,20.23
2022-08-10T06:34:22.467Z,20.35
2022-08-10T06:36:52.903Z,20.46
2022-08-10T06:39:37.764Z,20.55
2022-08-10T06:42:17.982Z,20.62
2022-08-10T06:44:56.746Z,20.69
2022-08-10T06:47:31.477Z,20.78
2022-08-10T06:50:08.756Z,20.87
2022-08-10T06:52:39.377Z,20.96
2022-08-10T06:55:12.305Z,21.06
2022-08-10T06:58:00.194Z,21.15
2022-08-10T07:00:34.521Z,21.23
2022-08-10T07:03:10.675Z,21.31
2022-08-10T07:05:50.979Z,21.40
2022-08-10T07:08:22.366Z,21.53
2022-08-10T07:10:52.827Z,21.64
2022-08-10T07:14:14.626Z,21.74
2022-08-10T07:16:14.607Z,21.82
2022-08-10T07:18:44.558Z,21.90
2022-08-10T07:21:15.192Z,21.99
2022-08-10T07:23:56.830Z,22.05
2022-08-10T07:26:30.198Z,22.13
2022-08-10T07:28:59.838Z,22.18
2022-08-10T07:31:55.236Z,22.27
2022-08-10T07:34:28.547Z,22.38
2022-08-10T07:37:02.250Z,22.48
2022-08-10T07:40:03.789Z,22.56
2022-08-10T07:42:23.897Z,22.67
2022-08-10T07:44:52.404Z,22.79
2022-08-10T07:47:52.938Z,22.90
2022-08-10T07:50:24.447Z,23.04
2022-08-10T07:52:54.919Z,23.15
2022-08-10T07:56:04.635Z,23.23
2022-08-10T07:58:13.422Z,23.31
2022-08-10T08:00:43.032Z,23.45
2022-08-10T08:03:15.027Z,23.58
2022-08-10T08:06:02.530Z,23.68
2022-08-10T08:08:34.630Z,23.81
2022-08-10T08:11:04.174Z,23.92
2022-08-10T08:13:32.965Z,24.01
2022-08-10T08:16:17.880Z,24.12
2022-08-10T08:19:23.566Z,24.25
2022-08-10T08:24:07.954Z,24.39
2022-08-10T08:24:35.000Z,24.50
2022-08-10T08:27:04.653Z,24.63
2022-08-10T08:29:36.787Z,24.74
2022-08-10T08:32:06.846Z,24.83
2022-08-10T08:34:40.383Z,24.94
2022-08-10T08:37:12.340Z,25.04
2022-08-10T08:39:48.432Z,25.16
2022-08-10T08:42:54.364Z,25.29
2022-08-10T08:45:31.554Z,25.38
2022-08-10T08:48:39.262Z,25.48
2022-08-10T08:52:08.285Z,25.58
2022-08-10T08:54:23.291Z,25.66
2022-08-10T08:57:04.395Z,25.78
2022-08-10T08:59:51.149Z,25.91
2022-08-10T09:02:40.716Z,26.01
2022-08-10T09:05:29.531Z,26.10
2022-08-10T09:08:27.497Z,26.22
2022-08-10T09:11:01.925Z,26.31
2022-08-10T09:13:36.055Z,26.41
2022-08-10T09:16:24.657Z,26.46
2022-08-10T09:19:03.509Z,26.50
2022-08-10T09:21:52.331Z,26.60
2022-08-10T09:24:49.834Z,26.78
2022-08-10T09:27:22.427Z,26.90
2022-08-10T09:29:59.175Z,27.02
2022-08-10T09:36:16.930Z,27.15
2022-08-10T09:36:19.797Z,27.27
2022-08-10T09:38:42.286Z,27.35
2022-08-10T09:41:27.105Z,27.45
2022-08-10T09:44:08.953Z,27.52
2022-08-10T09:47:10.021Z,27.61
2022-08-10T09:49:56.347Z,27.71
2022-08-10T09:52:41.790Z,27.83
2022-08-10T09:55:18.579Z,27.90
2022-08-10T09:57:59.916Z,27.98
2022-08-10T10:00:36.621Z,28.13
2022-08-10T10:03:17.801Z,28.22
2022-08-10T10:06:01.591Z,28.34
2022-08-10T10:08:42.827Z,28.45
2022-08-10T10:11:18.978Z,28.55
2022-08-10T10:14:06.400Z,28.66
2022-08-10T10:17:03.045Z,28.79
2022-08-10T10:19:55.234Z,28.90
2022-08-10T10:22:43.762Z,28.94
2022-08-10T10:25:24.675Z,29.02
2022-08-10T10:28:44.473Z,29.12
2022-08-10T10:31:29.373Z,29.22
2022-08-10T10:34:10.374Z,29.30
2022-08-10T10:36:41.512Z,29.39
2022-08-10T10:39:13.730Z,29.50
2022-08-10T10:42:03.650Z,29.60
2022-08-10T10:44:54.403Z,29.69
2022-08-10T10:47:46.268Z,29.78
2022-08-10T10:50:20.542Z,29.85
2022-08-10T10:52:59.607Z,29.91
2022-08-10T10:56:13.592Z,29.96
2022-08-10T10:58:29.476Z,30.08
2022-08-10T11:01:08.583Z,30.21
2022-08-10T11:03:54.014Z,30.31
2022-08-10T11:06:50.873Z,30.32
2022-08-10T11:10:03.440Z,30.37
2022-08-10T11:12:26.275Z,30.46
2022-08-10T11:15:05.038Z,30.51
2022-08-10T11:17:41.682Z,30.59
2022-08-10T11:20:16.976Z,30.64
2022-08-10T11:23:04.267Z,30.69
2022-08-10T11:25:35.426Z,30.76
2022-08-10T11:28:10.565Z,30.83
2022-08-10T11:30:47.717Z,30.89
2022-08-10T11:33:30.745Z,30.95
2022-08-10T11:36:08.594Z,30.98
2022-08-10T11:39:12.626Z,31.10
2022-08-10T11:42:07.823Z,31.29
2022-08-10T11:44:39.424Z,31.50
2022-08-10T11:47:13.361Z,31.76
2022-08-10T11:49:50.297Z,32.01
2022-08-10T11:52:29.758Z,32.29
2022-08-10T11:55:06.215Z,32.65
2022-08-10T11:57:54.482Z,32.95
2022-08-10T12:00:23.219Z,33.26
2022-08-10T12:02:56.609Z,33.52
2022-08-10T12:05:48.265Z,33.82
2022-08-10T12:10:04.573Z,34.10
2022-08-10T12:11:12.587Z,34.44
2022-08-10T12:14:20.111Z,34.95
2022-08-10T12:16:51.376Z,35.37
2022-08-10T12:19:28.953Z,35.64
2022-08-10T12:22:06.079Z,36.01
2022-08-10T12:24:43.693Z,36.41
2022-08-10T12:27:17.799Z,36.85
2022-08-10T12:29:51.834Z,37.24
2022-08-10T12:32:30.502Z,37.34
2022-08-10T12:35:26.578Z,37.47
2022-08-10T12:38:07.002Z,37.83
2022-08-10T12:40:44.416Z,38.18
2022-08-10T12:44:07.700Z,38.47
2022-08-10T12:46:13.841Z,38.78
2022-08-10T12:48:53.135Z,39.24
2022-08-10T12:51:24.643Z,39.65
2022-08-10T12:53:58.755Z,39.78
2022-08-10T12:56:32.560Z,39.78
2022-08-10T12:59:05.560Z,40.09
2022-08-10T13:02:09.903Z,40.40
2022-08-10T13:04:33.078Z,40.78
2022-08-10T13:07:03.853Z,41.12
2022-08-10T13:09:33.832Z,41.49
2022-08-10T13:12:38.460Z,41.84
2022-08-10T13:15:31.050Z,41.68
2022-08-10T13:18:18.702Z,41.56
2022-08-10T13:20:53.744Z,41.69
2022-08-10T13:23:26.899Z,41.92
2022-08-10T13:25:59.625Z,42.31
2022-08-10T13:28:43.276Z,42.67
2022-08-10T13:31:19.403Z,42.95
2022-08-10T13:34:41.300Z,43.24
2022-08-10T13:36:43.089Z,43.39
2022-08-10T13:39:13.943Z,43.48
2022-08-10T13:41:45.417Z,43.60
2022-08-10T13:44:30.726Z,43.87
2022-08-10T13:46:59.476Z,44.21
2022-08-10T13:49:30.692Z,44.53
2022-08-10T13:51:59.721Z,44.48
2022-08-10T13:54:30.812Z,44.48
2022-08-10T13:57:00.354Z,44.59
2022-08-10T14:00:36.328Z,44.86
2022-08-10T14:02:28.200Z,45.24
2022-08-10T14:04:59.221Z,45.62
2022-08-10T14:07:29.144Z,45.81
2022-08-10T14:10:07.217Z,45.98
2022-08-10T14:12:38.071Z,46.09
2022-08-10T14:15:13.162Z,46.08
2022-08-10T14:17:45.165Z,46.20
2022-08-10T14:20:21.319Z,46.55
2022-08-10T14:22:50.365Z,46.94
2022-08-10T14:25:18.650Z,47.39
2022-08-10T14:28:02.855Z,47.59
2022-08-10T14:30:34.433Z,47.88
2022-08-10T14:33:05.189Z,48.07
2022-08-10T14:36:20.785Z,48.41
2022-08-10T14:38:32.027Z,48.70
2022-08-10T14:41:03.827Z,48.83
2022-08-10T14:43:41.063Z,49.01
2022-08-10T14:46:19.904Z,49.12
2022-08-10T14:48:52.573Z,49.10
2022-08-10T14:51:27.808Z,49.14
2022-08-10T14:54:15.903Z,49.24
2022-08-10T14:56:48.803Z,49.44
2022-08-10T14:59:18.727Z,49.74
2022-08-10T15:02:00.158Z,49.94
2022-08-10T15:04:47.846Z,50.14
2022-08-10T15:07:22.120Z,50.42
2022-08-10T15:10:00.594Z,50.40
2022-08-10T15:12:34.628Z,50.42
2022-08-10T15:15:06.258Z,50.50
2022-08-10T15:17:39.601Z,50.76
2022-08-10T15:20:20.725Z,50.78
2022-08-10T15:22:54.136Z,50.43
2022-08-10T15:25:26.430Z,50.39
2022-08-10T15:28:09.534Z,50.59
2022-08-10T15:30:42.836Z,50.72
2022-08-10T15:34:03.463Z,50.79
2022-08-10T15:36:44.099Z,50.90
2022-08-10T15:40:21.786Z,51.00
2022-08-10T15:42:21.941Z,50.67
2022-08-10T15:44:54.918Z,50.29
2022-08-10T15:47:27.321Z,50.08
2022-08-10T15:50:22.506Z,50.28
2022-08-10T15:53:02.614Z,50.43
2022-08-10T15:55:43.165Z,50.66
2022-08-10T15:58:37.503Z,50.67
2022-08-10T16:02:04.454Z,50.36
2022-08-10T16:04:08.409Z,50.28
2022-08-10T16:06:43.898Z,50.56
2022-08-10T16:10:22.197Z,50.72
2022-08-10T16:12:14.662Z,50.90
2022-08-10T16:14:49.077Z,50.76
2022-08-10T16:17:18.986Z,50.74
2022-08-10T16:19:51.129Z,50.83
2022-08-10T16:22:35.794Z,50.87
2022-08-10T16:25:15.634Z,51.25
2022-08-10T16:27:45.126Z,51.65
2022-08-10T16:30:14.907Z,51.72
2022-08-10T16:32:46.648Z,51.34
2022-08-10T16:35:18.991Z,51.19
2022-08-10T16:37:58.939Z,51.01
2022-08-10T16:40:29.588Z,50.97
2022-08-10T16:43:00.151Z,50.99
2022-08-10T16:45:38.713Z,50.73
2022-08-10T16:48:08.880Z,50.53
2022-08-10T16:50:45.313Z,50.62
2022-08-10T16:53:18.591Z,50.47
2022-08-10T16:55:51.201Z,50.43
2022-08-10T16:58:27.303Z,50.43
2022-08-10T17:01:05.365Z,50.43
2022-08-10T17:04:06.568Z,50.35
2022-08-10T17:06:34.868Z,50.09
2022-08-10T17:09:08.213Z,49.85
2022-08-10T17:11:41.460Z,49.63
2022-08-10T17:14:10.903Z,49.67
2022-08-10T17:16:44.085Z,49.81
2022-08-10T17:19:15.532Z,49.79
2022-08-10T17:21:52.384Z,49.44
2022-08-10T17:24:28.784Z,49.28
2022-08-10T17:28:04.089Z,49.21
2022-08-10T17:30:03.271Z,48.79
2022-08-10T17:32:44.310Z,48.57
2022-08-10T17:35:23.135Z,48.31
2022-08-10T17:37:58.039Z,48.19
2022-08-10T17:40:29.902Z,48.10
2022-08-10T17:42:59.655Z,47.92
2022-08-10T17:45:48.720Z,47.69
2022-08-10T17:48:26.716Z,47.61
2022-08-10T17:50:57.608Z,47.49
2022-08-10T17:53:37.063Z,47.28
2022-08-10T17:56:08.167Z,47.15
2022-08-10T17:58:37.101Z,46.91
2022-08-10T18:01:41.239Z,46.68
2022-08-10T18:04:14.241Z,46.25
2022-08-10T18:06:55.676Z,46.00
2022-08-10T18:09:32.116Z,45.72
2022-08-10T18:12:10.444Z,45.40
2022-08-10T18:14:49.653Z,44.96
2022-08-10T18:17:22.651Z,44.36
2022-08-10T18:19:55.543Z,43.92
2022-08-10T18:22:26.146Z,43.60
2022-08-10T18:24:55.803Z,43.20
2022-08-10T18:28:00.937Z,42.73
2022-08-10T18:30:16.999Z,42.12
2022-08-10T18:32:54.420Z,41.43
2022-08-10T18:35:34.710Z,40.73
2022-08-10T18:38:05.736Z,39.61
2022-08-10T18:40:37.138Z,38.11
2022-08-10T18:44:05.646Z,36.45
2022-08-10T18:46:01.126Z,34.93
2022-08-10T18:48:42.114Z,33.78
2022-08-10T18:51:13.119Z,32.93
2022-08-10T18:53:48.348Z,32.15
2022-08-10T18:56:33.556Z,31.37
2022-08-10T18:59:35.117Z,30.69
2022-08-10T19:02:28.716Z,30.14
2022-08-10T19:05:30.105Z,29.66
2022-08-10T19:08:35.681Z,29.18
2022-08-10T19:11:13.009Z,28.85
2022-08-10T19:13:54.303Z,28.57
2022-08-10T19:16:37.366Z,28.30
2022-08-10T19:19:23.075Z,28.02
2022-08-10T19:22:02.296Z,27.76
2022-08-10T19:24:48.654Z,27.49
2022-08-10T19:27:37.034Z,27.21
2022-08-10T19:30:13.328Z,26.97
2022-08-10T19:33:04.158Z,26.73
2022-08-10T19:36:03.452Z,26.51
2022-08-10T19:38:49.604Z,26.31
2022-08-10T19:41:40.374Z,26.13
2022-08-10T19:44:22.442Z,25.92
2022-08-10T19:46:58.214Z,25.79
2022-08-10T19:49:42.842Z,25.62
2022-08-10T19:52:22.568Z,25.47
2022-08-10T19:55:02.186Z,25.33
2022-08-10T19:57:36.922Z,25.21
2022-08-10T20:00:19.522Z,25.11
2022-08-10T20:03:07.874Z,24.92
2022-08-10T20:06:18.341Z,24.79
2022-08-10T20:08:53.977Z,24.65
2022-08-10T20:11:45.862Z,24.55
2022-08-10T20:14:22.963Z,24.43
2022-08-10T20:16:56.565Z,24.34
2022-08-10T20:19:53.171Z,24.25
2022-08-10T20:22:30.438Z,24.13
2022-08-10T20:25:07.375Z,24.02
2022-08-10T20:28:00.139Z,23.94
2022-08-10T20:30:33.197Z,23.84
2022-08-10T20:33:11.567Z,23.75
2022-08-10T20:35:50.390Z,23.65
2022-08-10T20:38:28.855Z,23.58
2022-08-10T20:41:13.596Z,23.49
2022-08-10T20:43:57.680Z,23.39
2022-08-10T20:46:34.856Z,23.31
2022-08-10T20:49:11.782Z,23.24
2022-08-10T20:51:57.978Z,23.16
2022-08-10T20:54:43.401Z,23.07
2022-08-10T20:57:54.586Z,22.98
2022-08-10T21:00:27.140Z,22.92
2022-08-10T21:03:36.030Z,22.82
2022-08-10T21:06:47.596Z,22.74
2022-08-10T21:09:37.992Z,22.65
2022-08-10T21:12:50.555Z,22.56
2022-08-10T21:15:41.944Z,22.50
2022-08-10T21:18:27.834Z,22.43
2022-08-10T21:21:10.530Z,22.38
2022-08-10T21:23:50.318Z,22.32
2022-08-10T21:26:29.451Z,22.26
2022-08-10T21:29:21.356Z,22.20
2022-08-10T21:32:07.205Z,22.12
2022-08-10T21:35:01.252Z,22.03
2022-08-10T21:37:40.005Z,22.00
2022-08-10T21:40:36.095Z,21.92
2022-08-10T21:43:44.447Z,21.85
2022-08-10T21:46:54.841Z,21.77
2022-08-10T21:49:57.315Z,21.70
2022-08-10T21:53:00.894Z,21.64
2022-08-10T21:56:04.521Z,21.58
2022-08-10T21:59:05.292Z,21.51
2022-08-10T22:01:56.959Z,21.47
2022-08-10T22:04:44.760Z,21.40
2022-08-10T22:07:36.567Z,21.33
2022-08-10T22:10:25.929Z,21.28
2022-08-10T22:13:19.652Z,21.23
2022-08-10T22:16:11.985Z,21.16
2022-08-10T22:19:03.581Z,21.11
2022-08-10T22:22:06.004Z,21.03
2022-08-10T22:25:17.517Z,20.96
2022-08-10T22:28:17.724Z,20.93
2022-08-10T22:31:32.263Z,20.89
2022-08-10T22:34:35.358Z,20.82
2022-08-10T22:37:38.636Z,20.75
2022-08-10T22:40:32.569Z,20.71
2022-08-10T22:43:31.082Z,20.68
2022-08-10T22:46:32.852Z,20.60
2022-08-10T22:49:00.305Z,20.55
2022-08-10T22:51:53.928Z,20.49
2022-08-10T22:54:46.042Z,20.45
2022-08-10T22:57:33.661Z,20.39
2022-08-10T23:00:14.581Z,20.33
2022-08-10T23:02:53.546Z,20.29
2022-08-10T23:05:31.720Z,20.25
2022-08-10T23:08:10.859Z,20.19
2022-08-10T23:10:48.950Z,20.15
2022-08-10T23:13:26.397Z,20.12
2022-08-10T23:16:29.093Z,20.07
2022-08-10T23:19:10.384Z,20.02
2022-08-10T23:22:04.507Z,19.97
2022-08-10T23:24:37.350Z,19.92
2022-08-10T23:27:13.141Z,19.87
2022-08-10T23:30:03.858Z,19.83
2022-08-10T23:32:43.283Z,19.79
2022-08-10T23:37:56.776Z,19.70
2022-08-10T23:40:26.511Z,19.66
2022-08-10T23:42:55.554Z,19.63
2022-08-10T23:45:27.866Z,19.59
2022-08-10T23:48:01.906Z,19.56
2022-08-10T23:50:30.970Z,19.51
2022-08-10T23:53:13.706Z,19.48
2022-08-10T23:55:49.542Z,19.43
2022-08-10T23:58:31.579Z,19.40
